sensor_id;sensor_type;location;lat;lon;timestamp;P1;durP1;ratioP1;P2;durP2;ratioP2
65393;SDS011;52002;49.760;6.512;2023-11-21T00:01:56;3.50;;;1.40;;
65393;SDS011;52002;49.760;6.512;2023-11-21T00:04:23;3.30;;;1.20;;
65393;SDS011;52002;49.760;6.512;2023-11-21T00:06:48;2.00;;;1.00;;
65393;SDS011;52002;49.760;6.512;2023-11-21T00:09:14;2.70;;;1.20;;
65393;SDS011;52002;49.760;6.512;2023-11-21T00:11:44;1.20;;;0.90;;
65393;SDS011;52002;49.760;6.512;2023-11-21T00:14:13;2.80;;;1.00;;
65393;SDS011;52002;49.760;6.512;2023-11-21T00:16:40;0.90;;;0.80;;
65393;SDS011;52002;49.760;6.512;2023-11-21T00:19:06;3.20;;;0.80;;
65393;SDS011;52002;49.760;6.512;2023-11-21T00:21:31;1.80;;;1.00;;
65393;SDS011;52002;49.760;6.512;2023-11-21T00:23:57;3.50;;;1.10;;
65393;SDS011;52002;49.760;6.512;2023-11-21T00:26:22;5.50;;;1.20;;
65393;SDS011;52002;49.760;6.512;2023-11-21T00:28:49;1.70;;;1.10;;
65393;SDS011;52002;49.760;6.512;2023-11-21T00:31:15;2.00;;;0.80;;
65393;SDS011;52002;49.760;6.512;2023-11-21T00:33:41;0.70;;;0.60;;
65393;SDS011;52002;49.760;6.512;2023-11-21T00:36:06;2.30;;;1.10;;
65393;SDS011;52002;49.760;6.512;2023-11-21T00:38:35;0.90;;;0.80;;
65393;SDS011;52002;49.760;6.512;2023-11-21T00:41:01;3.30;;;1.10;;
65393;SDS011;52002;49.760;6.512;2023-11-21T00:43:28;3.80;;;1.30;;
65393;SDS011;52002;49.760;6.512;2023-11-21T00:45:53;6.00;;;0.80;;
65393;SDS011;52002;49.760;6.512;2023-11-21T00:48:18;2.20;;;1.30;;
65393;SDS011;52002;49.760;6.512;2023-11-21T00:50:44;4.40;;;3.10;;
65393;SDS011;52002;49.760;6.512;2023-11-21T00:53:09;1.80;;;1.00;;
65393;SDS011;52002;49.760;6.512;2023-11-21T00:55:36;5.30;;;1.70;;
65393;SDS011;52002;49.760;6.512;2023-11-21T00:58:04;1.70;;;1.10;;
65393;SDS011;52002;49.760;6.512;2023-11-21T01:00:32;0.80;;;0.80;;
65393;SDS011;52002;49.760;6.512;2023-11-21T01:02:58;0.70;;;0.70;;
65393;SDS011;52002;49.760;6.512;2023-11-21T01:05:24;1.30;;;0.90;;
65393;SDS011;52002;49.760;6.512;2023-11-21T01:07:49;1.30;;;0.90;;
65393;SDS011;52002;49.760;6.512;2023-11-21T01:10:15;1.90;;;1.00;;
65393;SDS011;52002;49.760;6.512;2023-11-21T01:12:42;1.70;;;0.80;;
65393;SDS011;52002;49.760;6.512;2023-11-21T01:15:07;1.60;;;0.90;;
65393;SDS011;52002;49.760;6.512;2023-11-21T01:17:33;3.50;;;0.90;;
65393;SDS011;52002;49.760;6.512;2023-11-21T01:20:02;4.00;;;0.80;;
65393;SDS011;52002;49.760;6.512;2023-11-21T01:22:28;0.80;;;0.70;;
65393;SDS011;52002;49.760;6.512;2023-11-21T01:24:53;1.40;;;0.80;;
65393;SDS011;52002;49.760;6.512;2023-11-21T01:27:19;1.00;;;0.70;;
65393;SDS011;52002;49.760;6.512;2023-11-21T01:29:45;1.50;;;0.70;;
65393;SDS011;52002;49.760;6.512;2023-11-21T01:32:10;3.20;;;0.60;;
65393;SDS011;52002;49.760;6.512;2023-11-21T01:34:36;0.70;;;0.60;;
65393;SDS011;52002;49.760;6.512;2023-11-21T01:37:01;1.30;;;0.60;;
65393;SDS011;52002;49.760;6.512;2023-11-21T01:39:29;1.10;;;0.80;;
65393;SDS011;52002;49.760;6.512;2023-11-21T01:41:55;0.90;;;0.70;;
65393;SDS011;52002;49.760;6.512;2023-11-21T01:44:20;2.30;;;0.60;;
65393;SDS011;52002;49.760;6.512;2023-11-21T01:46:46;1.90;;;0.70;;
65393;SDS011;52002;49.760;6.512;2023-11-21T01:49:13;2.10;;;0.90;;
65393;SDS011;52002;49.760;6.512;2023-11-21T01:51:43;1.20;;;1.10;;
65393;SDS011;52002;49.760;6.512;2023-11-21T01:54:12;1.50;;;0.80;;
65393;SDS011;52002;49.760;6.512;2023-11-21T01:56:37;0.80;;;0.80;;
65393;SDS011;52002;49.760;6.512;2023-11-21T01:59:03;4.70;;;1.10;;
65393;SDS011;52002;49.760;6.512;2023-11-21T02:01:28;1.00;;;0.90;;
65393;SDS011;52002;49.760;6.512;2023-11-21T02:03:53;1.60;;;1.20;;
65393;SDS011;52002;49.760;6.512;2023-11-21T02:06:19;1.60;;;1.00;;
65393;SDS011;52002;49.760;6.512;2023-11-21T02:08:44;1.00;;;0.80;;
65393;SDS011;52002;49.760;6.512;2023-11-21T02:11:10;1.80;;;1.00;;
65393;SDS011;52002;49.760;6.512;2023-11-21T02:13:38;1.60;;;1.40;;
65393;SDS011;52002;49.760;6.512;2023-11-21T02:16:09;1.10;;;1.00;;
65393;SDS011;52002;49.760;6.512;2023-11-21T02:18:36;4.70;;;1.00;;
65393;SDS011;52002;49.760;6.512;2023-11-21T02:21:03;1.50;;;0.80;;
65393;SDS011;52002;49.760;6.512;2023-11-21T02:23:29;0.90;;;0.90;;
65393;SDS011;52002;49.760;6.512;2023-11-21T02:25:55;5.80;;;1.50;;
65393;SDS011;52002;49.760;6.512;2023-11-21T02:28:21;1.40;;;1.00;;
65393;SDS011;52002;49.760;6.512;2023-11-21T02:30:51;1.90;;;1.00;;
65393;SDS011;52002;49.760;6.512;2023-11-21T02:33:21;1.40;;;1.20;;
65393;SDS011;52002;49.760;6.512;2023-11-21T02:35:47;1.10;;;0.90;;
65393;SDS011;52002;49.760;6.512;2023-11-21T02:38:13;3.10;;;1.10;;
65393;SDS011;52002;49.760;6.512;2023-11-21T02:40:39;0.90;;;0.90;;
65393;SDS011;52002;49.760;6.512;2023-11-21T02:43:04;0.80;;;0.80;;
65393;SDS011;52002;49.760;6.512;2023-11-21T02:45:31;3.70;;;1.30;;
65393;SDS011;52002;49.760;6.512;2023-11-21T02:47:57;1.60;;;1.20;;
65393;SDS011;52002;49.760;6.512;2023-11-21T02:50:23;2.00;;;1.30;;
65393;SDS011;52002;49.760;6.512;2023-11-21T02:52:49;1.30;;;1.10;;
65393;SDS011;52002;49.760;6.512;2023-11-21T02:55:14;1.30;;;1.20;;
65393;SDS011;52002;49.760;6.512;2023-11-21T02:57:40;3.50;;;1.10;;
65393;SDS011;52002;49.760;6.512;2023-11-21T03:00:05;2.40;;;0.90;;
65393;SDS011;52002;49.760;6.512;2023-11-21T03:02:35;2.00;;;1.10;;
65393;SDS011;52002;49.760;6.512;2023-11-21T03:05:04;1.10;;;1.00;;
65393;SDS011;52002;49.760;6.512;2023-11-21T03:07:30;2.20;;;0.90;;
65393;SDS011;52002;49.760;6.512;2023-11-21T03:09:56;1.40;;;1.20;;
65393;SDS011;52002;49.760;6.512;2023-11-21T03:12:21;1.00;;;1.00;;
65393;SDS011;52002;49.760;6.512;2023-11-21T03:14:46;0.90;;;0.90;;
65393;SDS011;52002;49.760;6.512;2023-11-21T03:17:12;3.80;;;0.90;;
65393;SDS011;52002;49.760;6.512;2023-11-21T03:19:41;1.10;;;1.00;;
65393;SDS011;52002;49.760;6.512;2023-11-21T03:22:06;3.70;;;0.90;;
65393;SDS011;52002;49.760;6.512;2023-11-21T03:24:32;1.00;;;0.70;;
65393;SDS011;52002;49.760;6.512;2023-11-21T03:26:57;1.30;;;0.80;;
65393;SDS011;52002;49.760;6.512;2023-11-21T03:29:23;0.80;;;0.70;;
65393;SDS011;52002;49.760;6.512;2023-11-21T03:31:48;1.40;;;1.00;;
65393;SDS011;52002;49.760;6.512;2023-11-21T03:34:26;0.90;;;0.80;;
65393;SDS011;52002;49.760;6.512;2023-11-21T03:36:53;2.30;;;1.00;;
65393;SDS011;52002;49.760;6.512;2023-11-21T03:39:21;1.00;;;0.90;;
65393;SDS011;52002;49.760;6.512;2023-11-21T03:41:47;1.30;;;1.10;;
65393;SDS011;52002;49.760;6.512;2023-11-21T03:44:13;6.00;;;1.20;;
65393;SDS011;52002;49.760;6.512;2023-11-21T03:46:39;1.90;;;1.10;;
65393;SDS011;52002;49.760;6.512;2023-11-21T03:49:04;2.40;;;1.20;;
65393;SDS011;52002;49.760;6.512;2023-11-21T03:51:30;3.40;;;1.50;;
65393;SDS011;52002;49.760;6.512;2023-11-21T03:53:55;1.50;;;0.90;;
65393;SDS011;52002;49.760;6.512;2023-11-21T03:56:21;0.90;;;0.90;;
65393;SDS011;52002;49.760;6.512;2023-11-21T03:58:48;2.60;;;0.80;;
65393;SDS011;52002;49.760;6.512;2023-11-21T04:01:21;4.30;;;0.80;;
65393;SDS011;52002;49.760;6.512;2023-11-21T04:03:48;4.20;;;2.40;;
65393;SDS011;52002;49.760;6.512;2023-11-21T04:06:16;3.80;;;2.00;;
65393;SDS011;52002;49.760;6.512;2023-11-21T04:08:45;2.50;;;1.70;;
65393;SDS011;52002;49.760;6.512;2023-11-21T04:11:11;2.10;;;0.90;;
65393;SDS011;52002;49.760;6.512;2023-11-21T04:13:37;3.20;;;1.90;;
65393;SDS011;52002;49.760;6.512;2023-11-21T04:16:04;5.50;;;3.00;;
65393;SDS011;52002;49.760;6.512;2023-11-21T04:18:30;4.30;;;2.00;;
65393;SDS011;52002;49.760;6.512;2023-11-21T04:20:56;7.30;;;2.30;;
65393;SDS011;52002;49.760;6.512;2023-11-21T04:23:21;2.10;;;1.10;;
65393;SDS011;52002;49.760;6.512;2023-11-21T04:25:46;2.80;;;0.70;;
65393;SDS011;52002;49.760;6.512;2023-11-21T04:28:12;1.50;;;1.20;;
65393;SDS011;52002;49.760;6.512;2023-11-21T04:30:38;1.40;;;1.00;;
65393;SDS011;52002;49.760;6.512;2023-11-21T04:33:04;1.10;;;1.00;;
65393;SDS011;52002;49.760;6.512;2023-11-21T04:35:30;1.20;;;0.80;;
65393;SDS011;52002;49.760;6.512;2023-11-21T04:37:55;2.70;;;0.80;;
65393;SDS011;52002;49.760;6.512;2023-11-21T04:40:22;2.00;;;0.80;;
65393;SDS011;52002;49.760;6.512;2023-11-21T04:42:47;0.70;;;0.70;;
65393;SDS011;52002;49.760;6.512;2023-11-21T04:45:13;2.20;;;0.80;;
65393;SDS011;52002;49.760;6.512;2023-11-21T04:47:38;1.80;;;0.90;;
65393;SDS011;52002;49.760;6.512;2023-11-21T04:50:04;2.80;;;0.90;;
65393;SDS011;52002;49.760;6.512;2023-11-21T04:52:31;3.40;;;0.70;;
65393;SDS011;52002;49.760;6.512;2023-11-21T04:54:58;0.80;;;0.60;;
65393;SDS011;52002;49.760;6.512;2023-11-21T04:57:24;1.00;;;0.90;;
65393;SDS011;52002;49.760;6.512;2023-11-21T04:59:49;1.00;;;1.00;;
65393;SDS011;52002;49.760;6.512;2023-11-21T05:02:15;3.70;;;0.90;;
65393;SDS011;52002;49.760;6.512;2023-11-21T05:04:41;5.20;;;1.20;;
65393;SDS011;52002;49.760;6.512;2023-11-21T05:07:07;2.90;;;1.00;;
65393;SDS011;52002;49.760;6.512;2023-11-21T05:09:33;1.50;;;1.00;;
65393;SDS011;52002;49.760;6.512;2023-11-21T05:11:59;2.50;;;0.90;;
65393;SDS011;52002;49.760;6.512;2023-11-21T05:14:25;2.40;;;0.80;;
65393;SDS011;52002;49.760;6.512;2023-11-21T05:16:50;1.30;;;1.00;;
65393;SDS011;52002;49.760;6.512;2023-11-21T05:19:17;2.00;;;0.80;;
65393;SDS011;52002;49.760;6.512;2023-11-21T05:21:42;1.20;;;1.10;;
65393;SDS011;52002;49.760;6.512;2023-11-21T05:24:08;2.80;;;0.90;;
65393;SDS011;52002;49.760;6.512;2023-11-21T05:26:34;0.60;;;0.60;;
65393;SDS011;52002;49.760;6.512;2023-11-21T05:28:59;1.10;;;1.00;;
65393;SDS011;52002;49.760;6.512;2023-11-21T05:31:25;0.90;;;0.80;;
65393;SDS011;52002;49.760;6.512;2023-11-21T05:33:50;1.80;;;0.70;;
65393;SDS011;52002;49.760;6.512;2023-11-21T05:36:15;3.30;;;0.90;;
65393;SDS011;52002;49.760;6.512;2023-11-21T05:38:41;1.10;;;1.00;;
65393;SDS011;52002;49.760;6.512;2023-11-21T05:41:06;1.00;;;0.90;;
65393;SDS011;52002;49.760;6.512;2023-11-21T05:43:33;5.40;;;1.10;;
65393;SDS011;52002;49.760;6.512;2023-11-21T05:46:00;1.10;;;0.70;;
65393;SDS011;52002;49.760;6.512;2023-11-21T05:48:26;2.60;;;1.10;;
65393;SDS011;52002;49.760;6.512;2023-11-21T05:50:52;5.30;;;1.10;;
65393;SDS011;52002;49.760;6.512;2023-11-21T05:53:17;2.80;;;1.20;;
65393;SDS011;52002;49.760;6.512;2023-11-21T05:55:43;1.10;;;1.00;;
65393;SDS011;52002;49.760;6.512;2023-11-21T05:58:08;1.20;;;1.10;;
65393;SDS011;52002;49.760;6.512;2023-11-21T06:00:33;4.60;;;1.20;;
65393;SDS011;52002;49.760;6.512;2023-11-21T06:02:59;2.70;;;1.30;;
65393;SDS011;52002;49.760;6.512;2023-11-21T06:05:24;1.90;;;1.10;;
65393;SDS011;52002;49.760;6.512;2023-11-21T06:07:51;1.40;;;1.10;;
65393;SDS011;52002;49.760;6.512;2023-11-21T06:10:19;1.30;;;1.20;;
65393;SDS011;52002;49.760;6.512;2023-11-21T06:12:45;6.00;;;1.50;;
65393;SDS011;52002;49.760;6.512;2023-11-21T06:15:10;1.40;;;1.20;;
65393;SDS011;52002;49.760;6.512;2023-11-21T06:17:38;3.60;;;1.40;;
65393;SDS011;52002;49.760;6.512;2023-11-21T06:20:05;2.30;;;1.30;;
65393;SDS011;52002;49.760;6.512;2023-11-21T06:22:39;3.70;;;1.30;;
65393;SDS011;52002;49.760;6.512;2023-11-21T06:25:06;2.80;;;1.60;;
65393;SDS011;52002;49.760;6.512;2023-11-21T06:27:37;1.60;;;1.40;;
65393;SDS011;52002;49.760;6.512;2023-11-21T06:30:04;2.30;;;1.60;;
65393;SDS011;52002;49.760;6.512;2023-11-21T06:32:31;2.30;;;1.20;;
65393;SDS011;52002;49.760;6.512;2023-11-21T06:34:56;2.20;;;1.60;;
65393;SDS011;52002;49.760;6.512;2023-11-21T06:37:25;6.30;;;1.70;;
65393;SDS011;52002;49.760;6.512;2023-11-21T06:39:51;5.30;;;1.70;;
65393;SDS011;52002;49.760;6.512;2023-11-21T06:42:17;5.10;;;1.90;;
65393;SDS011;52002;49.760;6.512;2023-11-21T06:44:44;4.40;;;1.60;;
65393;SDS011;52002;49.760;6.512;2023-11-21T06:47:10;3.40;;;1.90;;
65393;SDS011;52002;49.760;6.512;2023-11-21T06:49:36;3.60;;;1.90;;
65393;SDS011;52002;49.760;6.512;2023-11-21T06:52:01;2.90;;;1.80;;
65393;SDS011;52002;49.760;6.512;2023-11-21T06:54:28;3.50;;;1.80;;
65393;SDS011;52002;49.760;6.512;2023-11-21T06:56:54;5.80;;;1.90;;
65393;SDS011;52002;49.760;6.512;2023-11-21T06:59:21;2.50;;;2.10;;
65393;SDS011;52002;49.760;6.512;2023-11-21T07:01:47;4.70;;;1.80;;
65393;SDS011;52002;49.760;6.512;2023-11-21T07:04:12;2.70;;;1.70;;
65393;SDS011;52002;49.760;6.512;2023-11-21T07:06:37;2.20;;;1.80;;
65393;SDS011;52002;49.760;6.512;2023-11-21T07:09:03;2.90;;;2.10;;
65393;SDS011;52002;49.760;6.512;2023-11-21T07:11:29;5.20;;;2.00;;
65393;SDS011;52002;49.760;6.512;2023-11-21T07:13:54;3.40;;;1.90;;
65393;SDS011;52002;49.760;6.512;2023-11-21T07:16:19;4.20;;;1.90;;
65393;SDS011;52002;49.760;6.512;2023-11-21T07:18:45;2.70;;;1.50;;
65393;SDS011;52002;49.760;6.512;2023-11-21T07:21:10;1.80;;;1.70;;
65393;SDS011;52002;49.760;6.512;2023-11-21T07:23:37;1.60;;;1.50;;
65393;SDS011;52002;49.760;6.512;2023-11-21T07:26:03;4.70;;;1.80;;
65393;SDS011;52002;49.760;6.512;2023-11-21T07:28:33;2.00;;;1.80;;
65393;SDS011;52002;49.760;6.512;2023-11-21T07:30:59;2.30;;;1.70;;
65393;SDS011;52002;49.760;6.512;2023-11-21T07:33:25;3.90;;;1.70;;
65393;SDS011;52002;49.760;6.512;2023-11-21T07:35:50;3.00;;;1.90;;
65393;SDS011;52002;49.760;6.512;2023-11-21T07:38:16;3.00;;;1.80;;
65393;SDS011;52002;49.760;6.512;2023-11-21T07:40:41;3.60;;;2.10;;
65393;SDS011;52002;49.760;6.512;2023-11-21T07:43:06;5.30;;;1.90;;
65393;SDS011;52002;49.760;6.512;2023-11-21T07:45:31;4.60;;;1.70;;
65393;SDS011;52002;49.760;6.512;2023-11-21T07:47:57;3.30;;;1.90;;
65393;SDS011;52002;49.760;6.512;2023-11-21T07:50:23;7.20;;;1.90;;
65393;SDS011;52002;49.760;6.512;2023-11-21T07:52:49;3.20;;;2.00;;
65393;SDS011;52002;49.760;6.512;2023-11-21T07:55:14;2.80;;;1.60;;
65393;SDS011;52002;49.760;6.512;2023-11-21T07:57:40;2.00;;;1.80;;
65393;SDS011;52002;49.760;6.512;2023-11-21T08:00:06;2.70;;;1.80;;
65393;SDS011;52002;49.760;6.512;2023-11-21T08:02:34;2.70;;;1.50;;
65393;SDS011;52002;49.760;6.512;2023-11-21T08:04:59;2.30;;;1.90;;
65393;SDS011;52002;49.760;6.512;2023-11-21T08:07:25;4.20;;;2.10;;
65393;SDS011;52002;49.760;6.512;2023-11-21T08:09:51;3.10;;;1.70;;
65393;SDS011;52002;49.760;6.512;2023-11-21T08:12:17;1.90;;;1.70;;
65393;SDS011;52002;49.760;6.512;2023-11-21T08:14:45;2.30;;;1.60;;
65393;SDS011;52002;49.760;6.512;2023-11-21T08:17:10;3.50;;;2.00;;
65393;SDS011;52002;49.760;6.512;2023-11-21T08:19:36;4.40;;;1.80;;
65393;SDS011;52002;49.760;6.512;2023-11-21T08:22:02;3.00;;;1.80;;
65393;SDS011;52002;49.760;6.512;2023-11-21T08:24:28;2.90;;;2.00;;
65393;SDS011;52002;49.760;6.512;2023-11-21T08:26:53;3.60;;;2.00;;
65393;SDS011;52002;49.760;6.512;2023-11-21T08:29:19;5.10;;;2.70;;
65393;SDS011;52002;49.760;6.512;2023-11-21T08:31:44;10.60;;;3.90;;
65393;SDS011;52002;49.760;6.512;2023-11-21T08:34:12;7.90;;;3.50;;
65393;SDS011;52002;49.760;6.512;2023-11-21T08:36:42;4.60;;;2.50;;
65393;SDS011;52002;49.760;6.512;2023-11-21T08:39:08;6.20;;;2.80;;
65393;SDS011;52002;49.760;6.512;2023-11-21T08:41:34;9.00;;;3.70;;
65393;SDS011;52002;49.760;6.512;2023-11-21T08:44:01;7.10;;;2.80;;
65393;SDS011;52002;49.760;6.512;2023-11-21T08:46:27;4.40;;;2.60;;
65393;SDS011;52002;49.760;6.512;2023-11-21T08:48:52;6.60;;;3.00;;
65393;SDS011;52002;49.760;6.512;2023-11-21T08:51:18;7.50;;;2.50;;
65393;SDS011;52002;49.760;6.512;2023-11-21T08:53:43;7.80;;;3.30;;
65393;SDS011;52002;49.760;6.512;2023-11-21T08:56:15;7.20;;;3.30;;
65393;SDS011;52002;49.760;6.512;2023-11-21T08:58:40;8.50;;;3.20;;
65393;SDS011;52002;49.760;6.512;2023-11-21T09:01:06;5.50;;;2.90;;
65393;SDS011;52002;49.760;6.512;2023-11-21T09:03:32;4.40;;;2.80;;
65393;SDS011;52002;49.760;6.512;2023-11-21T09:05:59;5.50;;;3.00;;
65393;SDS011;52002;49.760;6.512;2023-11-21T09:08:25;6.70;;;2.90;;
65393;SDS011;52002;49.760;6.512;2023-11-21T09:10:50;4.50;;;2.40;;
65393;SDS011;52002;49.760;6.512;2023-11-21T09:13:16;11.00;;;2.90;;
65393;SDS011;52002;49.760;6.512;2023-11-21T09:15:43;4.80;;;3.10;;
65393;SDS011;52002;49.760;6.512;2023-11-21T09:18:12;4.30;;;2.60;;
65393;SDS011;52002;49.760;6.512;2023-11-21T09:20:38;5.40;;;2.50;;
65393;SDS011;52002;49.760;6.512;2023-11-21T09:23:04;6.30;;;2.90;;
65393;SDS011;52002;49.760;6.512;2023-11-21T09:25:29;6.10;;;3.20;;
65393;SDS011;52002;49.760;6.512;2023-11-21T09:27:54;9.70;;;3.30;;
65393;SDS011;52002;49.760;6.512;2023-11-21T09:30:21;4.90;;;3.00;;
65393;SDS011;52002;49.760;6.512;2023-11-21T09:32:46;6.90;;;3.70;;
65393;SDS011;52002;49.760;6.512;2023-11-21T09:35:12;10.50;;;4.80;;
65393;SDS011;52002;49.760;6.512;2023-11-21T09:37:39;7.70;;;3.70;;
65393;SDS011;52002;49.760;6.512;2023-11-21T09:40:04;5.10;;;3.10;;
65393;SDS011;52002;49.760;6.512;2023-11-21T09:42:40;5.30;;;3.10;;
65393;SDS011;52002;49.760;6.512;2023-11-21T09:45:15;5.00;;;3.30;;
65393;SDS011;52002;49.760;6.512;2023-11-21T09:47:43;5.90;;;3.10;;
65393;SDS011;52002;49.760;6.512;2023-11-21T09:50:08;5.60;;;3.10;;
65393;SDS011;52002;49.760;6.512;2023-11-21T09:55:13;4.70;;;2.90;;
65393;SDS011;52002;49.760;6.512;2023-11-21T09:57:40;4.70;;;3.10;;
65393;SDS011;52002;49.760;6.512;2023-11-21T10:00:07;5.50;;;3.00;;
65393;SDS011;52002;49.760;6.512;2023-11-21T10:02:39;6.10;;;3.00;;
65393;SDS011;52002;49.760;6.512;2023-11-21T10:05:06;4.00;;;2.80;;
65393;SDS011;52002;49.760;6.512;2023-11-21T10:07:31;3.50;;;2.70;;
65393;SDS011;52002;49.760;6.512;2023-11-21T10:10:00;4.90;;;3.10;;
65393;SDS011;52002;49.760;6.512;2023-11-21T10:12:27;9.70;;;2.70;;
65393;SDS011;52002;49.760;6.512;2023-11-21T10:14:53;5.00;;;3.00;;
65393;SDS011;52002;49.760;6.512;2023-11-21T10:17:21;5.40;;;3.00;;
65393;SDS011;52002;49.760;6.512;2023-11-21T10:19:51;5.30;;;2.50;;
65393;SDS011;52002;49.760;6.512;2023-11-21T10:22:18;4.30;;;3.30;;
65393;SDS011;52002;49.760;6.512;2023-11-21T10:24:45;7.70;;;3.20;;
65393;SDS011;52002;49.760;6.512;2023-11-21T10:27:11;5.50;;;2.80;;
65393;SDS011;52002;49.760;6.512;2023-11-21T10:29:38;6.70;;;2.40;;
65393;SDS011;52002;49.760;6.512;2023-11-21T10:32:04;6.50;;;2.80;;
65393;SDS011;52002;49.760;6.512;2023-11-21T10:34:30;9.50;;;4.40;;
65393;SDS011;52002;49.760;6.512;2023-11-21T10:36:56;5.10;;;2.60;;
65393;SDS011;52002;49.760;6.512;2023-11-21T10:39:23;6.40;;;3.30;;
65393;SDS011;52002;49.760;6.512;2023-11-21T10:41:52;5.30;;;2.50;;
65393;SDS011;52002;49.760;6.512;2023-11-21T10:44:20;6.40;;;2.70;;
65393;SDS011;52002;49.760;6.512;2023-11-21T10:46:55;9.10;;;3.40;;
65393;SDS011;52002;49.760;6.512;2023-11-21T10:49:24;7.60;;;3.10;;
65393;SDS011;52002;49.760;6.512;2023-11-21T10:51:51;5.90;;;3.10;;
65393;SDS011;52002;49.760;6.512;2023-11-21T10:54:21;7.40;;;3.80;;
65393;SDS011;52002;49.760;6.512;2023-11-21T10:56:49;5.30;;;2.70;;
65393;SDS011;52002;49.760;6.512;2023-11-21T10:59:18;9.10;;;2.80;;
65393;SDS011;52002;49.760;6.512;2023-11-21T11:01:46;5.10;;;3.10;;
65393;SDS011;52002;49.760;6.512;2023-11-21T11:04:14;9.30;;;3.30;;
65393;SDS011;52002;49.760;6.512;2023-11-21T11:06:54;6.40;;;3.30;;
65393;SDS011;52002;49.760;6.512;2023-11-21T11:09:22;5.70;;;3.00;;
65393;SDS011;52002;49.760;6.512;2023-11-21T11:11:48;3.70;;;2.60;;
65393;SDS011;52002;49.760;6.512;2023-11-21T11:14:14;6.50;;;3.00;;
65393;SDS011;52002;49.760;6.512;2023-11-21T11:16:40;7.60;;;2.80;;
65393;SDS011;52002;49.760;6.512;2023-11-21T11:19:09;6.80;;;2.70;;
65393;SDS011;52002;49.760;6.512;2023-11-21T11:27:06;6.30;;;3.30;;
65393;SDS011;52002;49.760;6.512;2023-11-21T11:33:29;6.50;;;2.30;;
65393;SDS011;52002;49.760;6.512;2023-11-21T11:39:31;5.40;;;2.60;;
65393;SDS011;52002;49.760;6.512;2023-11-21T11:42:13;3.60;;;2.50;;
65393;SDS011;52002;49.760;6.512;2023-11-21T11:52:46;6.00;;;3.20;;
65393;SDS011;52002;49.760;6.512;2023-11-21T11:55:16;6.40;;;3.00;;
65393;SDS011;52002;49.760;6.512;2023-11-21T11:57:48;5.70;;;2.60;;
65393;SDS011;52002;49.760;6.512;2023-11-21T12:00:16;5.10;;;2.60;;
65393;SDS011;52002;49.760;6.512;2023-11-21T12:02:47;7.00;;;3.00;;
65393;SDS011;52002;49.760;6.512;2023-11-21T12:05:15;5.20;;;2.40;;
65393;SDS011;52002;49.760;6.512;2023-11-21T12:07:46;4.00;;;2.40;;
65393;SDS011;52002;49.760;6.512;2023-11-21T12:10:13;6.10;;;2.60;;
65393;SDS011;52002;49.760;6.512;2023-11-21T12:12:45;6.80;;;2.80;;
65393;SDS011;52002;49.760;6.512;2023-11-21T12:15:15;4.90;;;3.20;;
65393;SDS011;52002;49.760;6.512;2023-11-21T12:17:41;6.00;;;2.50;;
65393;SDS011;52002;49.760;6.512;2023-11-21T12:20:14;5.30;;;2.50;;
65393;SDS011;52002;49.760;6.512;2023-11-21T12:22:47;4.60;;;2.40;;
65393;SDS011;52002;49.760;6.512;2023-11-21T12:25:17;4.10;;;2.40;;
65393;SDS011;52002;49.760;6.512;2023-11-21T12:27:45;7.20;;;2.10;;
65393;SDS011;52002;49.760;6.512;2023-11-21T12:30:13;2.90;;;2.20;;
65393;SDS011;52002;49.760;6.512;2023-11-21T12:32:40;5.30;;;2.50;;
65393;SDS011;52002;49.760;6.512;2023-11-21T12:35:09;6.50;;;2.60;;
65393;SDS011;52002;49.760;6.512;2023-11-21T12:37:36;3.00;;;2.00;;
65393;SDS011;52002;49.760;6.512;2023-11-21T12:40:03;3.30;;;1.60;;
65393;SDS011;52002;49.760;6.512;2023-11-21T12:42:30;2.50;;;1.80;;
65393;SDS011;52002;49.760;6.512;2023-11-21T12:47:41;2.20;;;1.60;;
65393;SDS011;52002;49.760;6.512;2023-11-21T12:50:08;3.70;;;1.40;;
65393;SDS011;52002;49.760;6.512;2023-11-21T12:52:40;1.40;;;1.30;;
65393;SDS011;52002;49.760;6.512;2023-11-21T12:55:06;3.90;;;1.20;;
65393;SDS011;52002;49.760;6.512;2023-11-21T12:57:34;3.20;;;1.90;;
65393;SDS011;52002;49.760;6.512;2023-11-21T13:00:03;5.20;;;1.90;;
65393;SDS011;52002;49.760;6.512;2023-11-21T13:02:38;2.10;;;1.40;;
65393;SDS011;52002;49.760;6.512;2023-11-21T13:05:03;2.50;;;1.50;;
65393;SDS011;52002;49.760;6.512;2023-11-21T13:07:41;2.80;;;1.60;;
65393;SDS011;52002;49.760;6.512;2023-11-21T13:10:12;3.70;;;1.80;;
65393;SDS011;52002;49.760;6.512;2023-11-21T13:12:42;5.30;;;2.10;;
65393;SDS011;52002;49.760;6.512;2023-11-21T13:15:13;3.60;;;1.60;;
65393;SDS011;52002;49.760;6.512;2023-11-21T13:17:42;3.40;;;1.70;;
65393;SDS011;52002;49.760;6.512;2023-11-21T13:20:10;3.70;;;1.90;;
65393;SDS011;52002;49.760;6.512;2023-11-21T13:22:44;7.10;;;2.30;;
65393;SDS011;52002;49.760;6.512;2023-11-21T13:25:14;3.40;;;1.50;;
65393;SDS011;52002;49.760;6.512;2023-11-21T13:27:43;5.40;;;1.60;;
65393;SDS011;52002;49.760;6.512;2023-11-21T13:30:10;4.70;;;1.90;;
65393;SDS011;52002;49.760;6.512;2023-11-21T13:32:47;2.80;;;1.60;;
65393;SDS011;52002;49.760;6.512;2023-11-21T13:35:16;4.10;;;1.60;;
65393;SDS011;52002;49.760;6.512;2023-11-21T13:37:49;2.90;;;1.60;;
65393;SDS011;52002;49.760;6.512;2023-11-21T13:40:20;3.60;;;1.90;;
65393;SDS011;52002;49.760;6.512;2023-11-21T13:42:51;3.70;;;1.70;;
65393;SDS011;52002;49.760;6.512;2023-11-21T13:45:22;3.90;;;1.70;;
65393;SDS011;52002;49.760;6.512;2023-11-21T13:47:50;3.10;;;1.70;;
65393;SDS011;52002;49.760;6.512;2023-11-21T13:50:20;5.70;;;1.50;;
65393;SDS011;52002;49.760;6.512;2023-11-21T13:52:50;2.70;;;1.60;;
65393;SDS011;52002;49.760;6.512;2023-11-21T13:55:18;2.00;;;1.30;;
65393;SDS011;52002;49.760;6.512;2023-11-21T13:57:44;4.30;;;1.50;;
65393;SDS011;52002;49.760;6.512;2023-11-21T14:00:13;6.60;;;1.70;;
65393;SDS011;52002;49.760;6.512;2023-11-21T14:02:58;5.10;;;1.90;;
65393;SDS011;52002;49.760;6.512;2023-11-21T14:05:26;3.50;;;1.50;;
65393;SDS011;52002;49.760;6.512;2023-11-21T14:07:55;5.00;;;1.70;;
65393;SDS011;52002;49.760;6.512;2023-11-21T14:10:27;2.70;;;1.30;;
65393;SDS011;52002;49.760;6.512;2023-11-21T14:13:02;3.60;;;1.40;;
65393;SDS011;52002;49.760;6.512;2023-11-21T14:15:30;2.10;;;1.20;;
65393;SDS011;52002;49.760;6.512;2023-11-21T14:17:57;3.90;;;1.30;;
65393;SDS011;52002;49.760;6.512;2023-11-21T14:20:24;2.70;;;1.40;;
65393;SDS011;52002;49.760;6.512;2023-11-21T14:22:50;4.70;;;1.50;;
65393;SDS011;52002;49.760;6.512;2023-11-21T14:25:15;8.70;;;1.70;;
65393;SDS011;52002;49.760;6.512;2023-11-21T14:27:42;4.40;;;1.30;;
65393;SDS011;52002;49.760;6.512;2023-11-21T14:30:08;8.10;;;1.80;;
65393;SDS011;52002;49.760;6.512;2023-11-21T14:32:37;4.30;;;1.30;;
65393;SDS011;52002;49.760;6.512;2023-11-21T14:35:03;1.90;;;1.30;;
65393;SDS011;52002;49.760;6.512;2023-11-21T14:37:29;2.70;;;1.30;;
65393;SDS011;52002;49.760;6.512;2023-11-21T14:39:54;3.60;;;1.30;;
65393;SDS011;52002;49.760;6.512;2023-11-21T14:42:20;5.30;;;1.40;;
65393;SDS011;52002;49.760;6.512;2023-11-21T14:44:50;2.40;;;1.20;;
65393;SDS011;52002;49.760;6.512;2023-11-21T14:47:17;5.50;;;1.50;;
65393;SDS011;52002;49.760;6.512;2023-11-21T14:49:46;2.60;;;1.40;;
65393;SDS011;52002;49.760;6.512;2023-11-21T14:52:21;4.20;;;1.60;;
65393;SDS011;52002;49.760;6.512;2023-11-21T14:55:02;3.20;;;1.20;;
65393;SDS011;52002;49.760;6.512;2023-11-21T14:57:47;2.00;;;1.30;;
65393;SDS011;52002;49.760;6.512;2023-11-21T15:00:16;4.10;;;1.80;;
65393;SDS011;52002;49.760;6.512;2023-11-21T15:03:04;3.90;;;1.50;;
65393;SDS011;52002;49.760;6.512;2023-11-21T15:05:30;3.50;;;1.70;;
65393;SDS011;52002;49.760;6.512;2023-11-21T15:07:56;3.50;;;1.30;;
65393;SDS011;52002;49.760;6.512;2023-11-21T15:10:33;6.50;;;2.00;;
65393;SDS011;52002;49.760;6.512;2023-11-21T15:13:12;3.60;;;1.80;;
65393;SDS011;52002;49.760;6.512;2023-11-21T15:15:38;3.70;;;1.30;;